sensor_id;sensor_type;location;lat;lon;timestamp;pressure;altitude;pressure_sealevel;temperature;humidity
10261;BME280;5175;42.606;23.388;2023-03-23T00:00:51;93703.47;;;4.75;100.00
10261;BME280;5175;42.606;23.388;2023-03-23T00:03:19;93680.75;;;4.74;100.00
10261;BME280;5175;42.606;23.388;2023-03-23T00:05:46;93688.84;;;4.68;100.00
10261;BME280;5175;42.606;23.388;2023-03-23T00:08:17;93679.47;;;4.77;100.00
10261;BME280;5175;42.606;23.388;2023-03-23T00:10:48;93691.44;;;4.84;100.00
10261;BME280;5175;42.606;23.388;2023-03-23T00:13:15;93683.59;;;4.89;100.00
10261;BME280;5175;42.606;23.388;2023-03-23T00:15:44;93683.09;;;4.92;100.00
10261;BME280;5175;42.606;23.388;2023-03-23T00:18:14;93685.59;;;5.04;100.00
10261;BME280;5175;42.606;23.388;2023-03-23T00:20:47;93688.31;;;5.09;100.00
10261;BME280;5175;42.606;23.388;2023-03-23T00:23:14;93692.50;;;5.05;100.00
10261;BME280;5175;42.606;23.388;2023-03-23T00:25:46;93697.25;;;5.03;100.00
10261;BME280;5175;42.606;23.388;2023-03-23T00:28:13;93697.66;;;4.95;100.00
10261;BME280;5175;42.606;23.388;2023-03-23T00:30:40;93702.03;;;4.84;100.00
10261;BME280;5175;42.606;23.388;2023-03-23T00:33:07;93699.66;;;4.66;100.00
10261;BME280;5175;42.606;23.388;2023-03-23T00:35:38;93691.91;;;4.60;100.00
10261;BME280;5175;42.606;23.388;2023-03-23T00:38:05;93708.00;;;4.58;100.00
10261;BME280;5175;42.606;23.388;2023-03-23T00:40:31;93709.13;;;4.62;100.00
10261;BME280;5175;42.606;23.388;2023-03-23T00:43:02;93711.84;;;4.67;100.00
10261;BME280;5175;42.606;23.388;2023-03-23T00:45:30;93713.75;;;4.72;100.00
10261;BME280;5175;42.606;23.388;2023-03-23T00:47:57;93719.84;;;4.72;100.00
10261;BME280;5175;42.606;23.388;2023-03-23T00:50:27;93714.31;;;4.74;100.00
10261;BME280;5175;42.606;23.388;2023-03-23T00:52:54;93716.31;;;4.67;100.00
10261;BME280;5175;42.606;23.388;2023-03-23T00:55:22;93721.16;;;4.53;100.00
10261;BME280;5175;42.606;23.388;2023-03-23T00:57:49;93721.91;;;4.70;100.00
10261;BME280;5175;42.606;23.388;2023-03-23T01:00:18;93722.84;;;4.81;100.00
10261;BME280;5175;42.606;23.388;2023-03-23T01:02:45;93722.28;;;4.79;100.00
10261;BME280;5175;42.606;23.388;2023-03-23T01:05:12;93717.41;;;4.87;100.00
10261;BME280;5175;42.606;23.388;2023-03-23T01:07:40;93732.09;;;5.00;100.00
10261;BME280;5175;42.606;23.388;2023-03-23T01:10:07;93724.91;;;4.95;100.00
10261;BME280;5175;42.606;23.388;2023-03-23T01:12:34;93715.28;;;5.11;100.00
10261;BME280;5175;42.606;23.388;2023-03-23T01:15:01;93710.25;;;4.88;100.00
10261;BME280;5175;42.606;23.388;2023-03-23T01:17:29;93717.03;;;5.00;100.00
10261;BME280;5175;42.606;23.388;2023-03-23T01:19:56;93721.38;;;5.12;100.00
10261;BME280;5175;42.606;23.388;2023-03-23T01:22:23;93712.59;;;5.28;100.00
10261;BME280;5175;42.606;23.388;2023-03-23T01:24:50;93719.66;;;5.44;100.00
10261;BME280;5175;42.606;23.388;2023-03-23T01:27:17;93712.44;;;5.39;100.00
10261;BME280;5175;42.606;23.388;2023-03-23T01:29:43;93714.50;;;5.32;100.00
10261;BME280;5175;42.606;23.388;2023-03-23T01:32:10;93707.50;;;5.21;100.00
10261;BME280;5175;42.606;23.388;2023-03-23T01:34:38;93707.25;;;5.23;100.00
10261;BME280;5175;42.606;23.388;2023-03-23T01:37:05;93707.03;;;5.29;100.00
10261;BME280;5175;42.606;23.388;2023-03-23T01:39:32;93699.50;;;5.16;100.00
10261;BME280;5175;42.606;23.388;2023-03-23T01:41:59;93684.66;;;5.37;100.00
10261;BME280;5175;42.606;23.388;2023-03-23T01:47:30;93692.38;;;5.92;100.00
10261;BME280;5175;42.606;23.388;2023-03-23T01:49:58;93689.59;;;5.82;100.00
10261;BME280;5175;42.606;23.388;2023-03-23T01:52:26;93689.41;;;5.61;100.00
10261;BME280;5175;42.606;23.388;2023-03-23T01:54:55;93687.47;;;5.52;100.00
10261;BME280;5175;42.606;23.388;2023-03-23T01:57:24;93680.31;;;5.52;100.00
10261;BME280;5175;42.606;23.388;2023-03-23T01:59:55;93681.50;;;5.40;100.00
10261;BME280;5175;42.606;23.388;2023-03-23T02:02:25;93685.72;;;5.36;100.00
10261;BME280;5175;42.606;23.388;2023-03-23T02:04:55;93678.97;;;5.23;100.00
10261;BME280;5175;42.606;23.388;2023-03-23T02:07:25;93682.72;;;5.05;100.00
10261;BME280;5175;42.606;23.388;2023-03-23T02:09:52;93680.66;;;5.34;100.00
10261;BME280;5175;42.606;23.388;2023-03-23T02:12:19;93673.03;;;5.38;100.00
10261;BME280;5175;42.606;23.388;2023-03-23T02:14:46;93692.50;;;5.53;100.00
10261;BME280;5175;42.606;23.388;2023-03-23T02:17:20;93687.59;;;5.40;100.00
10261;BME280;5175;42.606;23.388;2023-03-23T02:20:01;93690.84;;;5.47;100.00
10261;BME280;5175;42.606;23.388;2023-03-23T02:25:53;93690.94;;;5.57;100.00
10261;BME280;5175;42.606;23.388;2023-03-23T02:28:40;93671.56;;;5.47;100.00
10261;BME280;5175;42.606;23.388;2023-03-23T02:31:24;93671.59;;;5.52;100.00
10261;BME280;5175;42.606;23.388;2023-03-23T02:33:59;93686.78;;;5.61;100.00
10261;BME280;5175;42.606;23.388;2023-03-23T02:36:32;93682.19;;;5.52;100.00
10261;BME280;5175;42.606;23.388;2023-03-23T02:39:04;93684.34;;;5.60;100.00
10261;BME280;5175;42.606;23.388;2023-03-23T02:41:36;93694.56;;;5.46;100.00
10261;BME280;5175;42.606;23.388;2023-03-23T02:44:05;93697.75;;;5.48;100.00
10261;BME280;5175;42.606;23.388;2023-03-23T02:46:34;93692.19;;;5.50;100.00
10261;BME280;5175;42.606;23.388;2023-03-23T02:49:04;93699.94;;;5.56;100.00
10261;BME280;5175;42.606;23.388;2023-03-23T02:51:33;93696.56;;;5.61;100.00
10261;BME280;5175;42.606;23.388;2023-03-23T02:54:02;93706.69;;;5.69;100.00
10261;BME280;5175;42.606;23.388;2023-03-23T02:56:31;93705.72;;;5.53;100.00
10261;BME280;5175;42.606;23.388;2023-03-23T02:58:59;93717.97;;;5.59;100.00
10261;BME280;5175;42.606;23.388;2023-03-23T03:01:48;93712.69;;;5.59;100.00
10261;BME280;5175;42.606;23.388;2023-03-23T03:04:22;93703.13;;;5.58;100.00
10261;BME280;5175;42.606;23.388;2023-03-23T03:06:57;93729.53;;;5.75;100.00
10261;BME280;5175;42.606;23.388;2023-03-23T03:09:34;93729.84;;;5.84;100.00
10261;BME280;5175;42.606;23.388;2023-03-23T03:12:08;93726.56;;;5.72;100.00
10261;BME280;5175;42.606;23.388;2023-03-23T03:14:41;93723.59;;;5.90;100.00
10261;BME280;5175;42.606;23.388;2023-03-23T03:17:14;93730.03;;;5.99;100.00
10261;BME280;5175;42.606;23.388;2023-03-23T03:19:46;93733.66;;;5.88;100.00
10261;BME280;5175;42.606;23.388;2023-03-23T03:22:15;93725.97;;;5.91;100.00
10261;BME280;5175;42.606;23.388;2023-03-23T03:24:43;93736.88;;;5.73;100.00
10261;BME280;5175;42.606;23.388;2023-03-23T03:27:12;93739.69;;;5.61;100.00
10261;BME280;5175;42.606;23.388;2023-03-23T03:29:44;93746.28;;;5.37;100.00
10261;BME280;5175;42.606;23.388;2023-03-23T03:32:16;93739.84;;;5.28;100.00
10261;BME280;5175;42.606;23.388;2023-03-23T03:34:45;93728.72;;;5.26;100.00
10261;BME280;5175;42.606;23.388;2023-03-23T03:37:13;93732.09;;;5.22;100.00
10261;BME280;5175;42.606;23.388;2023-03-23T03:39:40;93732.78;;;5.34;100.00
10261;BME280;5175;42.606;23.388;2023-03-23T03:42:06;93730.19;;;5.39;100.00
10261;BME280;5175;42.606;23.388;2023-03-23T03:44:34;93727.50;;;5.34;100.00
10261;BME280;5175;42.606;23.388;2023-03-23T03:47:01;93734.13;;;5.36;100.00
10261;BME280;5175;42.606;23.388;2023-03-23T03:49:28;93740.78;;;5.39;100.00
10261;BME280;5175;42.606;23.388;2023-03-23T03:51:56;93744.38;;;5.11;100.00
10261;BME280;5175;42.606;23.388;2023-03-23T03:54:23;93736.09;;;5.02;100.00
10261;BME280;5175;42.606;23.388;2023-03-23T03:56:50;93748.81;;;5.05;100.00
10261;BME280;5175;42.606;23.388;2023-03-23T03:59:17;93734.47;;;5.01;100.00
10261;BME280;5175;42.606;23.388;2023-03-23T04:01:44;93727.09;;;5.03;100.00
10261;BME280;5175;42.606;23.388;2023-03-23T04:04:11;93735.03;;;5.03;100.00
10261;BME280;5175;42.606;23.388;2023-03-23T04:06:37;93725.31;;;5.09;100.00
10261;BME280;5175;42.606;23.388;2023-03-23T04:09:06;93727.97;;;4.87;100.00
10261;BME280;5175;42.606;23.388;2023-03-23T04:11:33;93723.72;;;4.86;100.00
10261;BME280;5175;42.606;23.388;2023-03-23T04:14:00;93734.91;;;4.93;100.00
10261;BME280;5175;42.606;23.388;2023-03-23T04:16:27;93732.25;;;4.93;100.00
10261;BME280;5175;42.606;23.388;2023-03-23T04:18:55;93731.94;;;4.68;100.00
10261;BME280;5175;42.606;23.388;2023-03-23T04:21:22;93730.50;;;4.61;100.00
10261;BME280;5175;42.606;23.388;2023-03-23T04:23:54;93736.03;;;4.59;100.00
10261;BME280;5175;42.606;23.388;2023-03-23T04:26:23;93744.25;;;4.63;100.00
10261;BME280;5175;42.606;23.388;2023-03-23T04:28:49;93741.34;;;4.81;100.00
10261;BME280;5175;42.606;23.388;2023-03-23T04:31:17;93738.41;;;4.77;100.00
10261;BME280;5175;42.606;23.388;2023-03-23T04:33:44;93718.41;;;4.65;100.00
10261;BME280;5175;42.606;23.388;2023-03-23T04:36:12;93729.06;;;4.91;100.00
10261;BME280;5175;42.606;23.388;2023-03-23T04:38:41;93742.13;;;4.98;100.00
10261;BME280;5175;42.606;23.388;2023-03-23T04:41:08;93743.81;;;4.87;100.00
10261;BME280;5175;42.606;23.388;2023-03-23T04:43:36;93735.22;;;4.97;100.00
10261;BME280;5175;42.606;23.388;2023-03-23T04:46:08;93738.31;;;5.11;100.00
10261;BME280;5175;42.606;23.388;2023-03-23T04:48:35;93746.84;;;4.96;100.00
10261;BME280;5175;42.606;23.388;2023-03-23T04:51:05;93742.53;;;4.90;100.00
10261;BME280;5175;42.606;23.388;2023-03-23T04:53:32;93755.28;;;4.93;100.00
10261;BME280;5175;42.606;23.388;2023-03-23T04:55:59;93750.06;;;4.98;100.00
10261;BME280;5175;42.606;23.388;2023-03-23T04:58:27;93743.28;;;5.07;100.00
10261;BME280;5175;42.606;23.388;2023-03-23T05:00:56;93748.75;;;5.00;100.00
10261;BME280;5175;42.606;23.388;2023-03-23T05:03:23;93738.22;;;4.84;100.00
10261;BME280;5175;42.606;23.388;2023-03-23T05:05:50;93752.75;;;5.03;100.00
10261;BME280;5175;42.606;23.388;2023-03-23T05:08:18;93756.16;;;5.20;100.00
10261;BME280;5175;42.606;23.388;2023-03-23T05:10:52;93753.25;;;5.22;100.00
10261;BME280;5175;42.606;23.388;2023-03-23T05:13:20;93755.75;;;5.12;100.00
10261;BME280;5175;42.606;23.388;2023-03-23T05:15:47;93762.88;;;4.89;100.00
10261;BME280;5175;42.606;23.388;2023-03-23T05:18:16;93759.00;;;4.97;100.00
10261;BME280;5175;42.606;23.388;2023-03-23T05:20:43;93767.75;;;4.97;100.00
10261;BME280;5175;42.606;23.388;2023-03-23T05:23:12;93760.97;;;5.06;100.00
10261;BME280;5175;42.606;23.388;2023-03-23T05:25:39;93749.03;;;5.21;100.00
10261;BME280;5175;42.606;23.388;2023-03-23T05:28:06;93758.44;;;5.33;100.00
10261;BME280;5175;42.606;23.388;2023-03-23T05:30:34;93764.59;;;5.39;100.00
10261;BME280;5175;42.606;23.388;2023-03-23T05:33:00;93765.09;;;5.62;100.00
10261;BME280;5175;42.606;23.388;2023-03-23T05:35:30;93763.34;;;5.73;100.00
10261;BME280;5175;42.606;23.388;2023-03-23T05:37:56;93760.94;;;5.93;100.00
10261;BME280;5175;42.606;23.388;2023-03-23T05:40:23;93766.09;;;6.05;100.00
10261;BME280;5175;42.606;23.388;2023-03-23T05:42:51;93767.31;;;6.24;100.00
10261;BME280;5175;42.606;23.388;2023-03-23T05:45:21;93780.09;;;6.32;100.00
10261;BME280;5175;42.606;23.388;2023-03-23T05:47:48;93777.38;;;6.22;100.00
10261;BME280;5175;42.606;23.388;2023-03-23T05:50:15;93791.50;;;6.32;100.00
10261;BME280;5175;42.606;23.388;2023-03-23T05:52:44;93791.59;;;6.11;100.00
10261;BME280;5175;42.606;23.388;2023-03-23T05:55:11;93798.69;;;5.84;100.00
10261;BME280;5175;42.606;23.388;2023-03-23T05:57:39;93799.38;;;5.96;100.00
10261;BME280;5175;42.606;23.388;2023-03-23T06:00:07;93806.69;;;6.10;100.00
10261;BME280;5175;42.606;23.388;2023-03-23T06:02:45;93804.13;;;6.20;100.00
10261;BME280;5175;42.606;23.388;2023-03-23T06:05:12;93798.66;;;6.32;100.00
10261;BME280;5175;42.606;23.388;2023-03-23T06:07:39;93792.41;;;6.43;100.00
10261;BME280;5175;42.606;23.388;2023-03-23T06:10:08;93793.34;;;6.59;100.00
10261;BME280;5175;42.606;23.388;2023-03-23T06:12:36;93792.97;;;6.82;100.00
10261;BME280;5175;42.606;23.388;2023-03-23T06:15:05;93789.31;;;6.88;100.00
10261;BME280;5175;42.606;23.388;2023-03-23T06:17:32;93796.25;;;6.99;100.00
10261;BME280;5175;42.606;23.388;2023-03-23T06:19:59;93802.44;;;7.10;100.00
10261;BME280;5175;42.606;23.388;2023-03-23T06:22:26;93791.69;;;7.31;100.00
10261;BME280;5175;42.606;23.388;2023-03-23T06:24:53;93792.91;;;7.09;100.00
10261;BME280;5175;42.606;23.388;2023-03-23T06:27:24;93804.97;;;7.36;100.00
10261;BME280;5175;42.606;23.388;2023-03-23T06:29:50;93801.34;;;7.57;100.00
10261;BME280;5175;42.606;23.388;2023-03-23T06:32:17;93809.88;;;7.60;100.00
10261;BME280;5175;42.606;23.388;2023-03-23T06:34:44;93800.91;;;7.81;100.00
10261;BME280;5175;42.606;23.388;2023-03-23T06:37:13;93809.75;;;8.06;100.00
10261;BME280;5175;42.606;23.388;2023-03-23T06:39:41;93806.66;;;8.35;100.00
10261;BME280;5175;42.606;23.388;2023-03-23T06:42:09;93802.72;;;8.62;100.00
10261;BME280;5175;42.606;23.388;2023-03-23T06:44:37;93817.34;;;9.00;100.00
10261;BME280;5175;42.606;23.388;2023-03-23T06:47:05;93810.94;;;9.11;100.00
10261;BME280;5175;42.606;23.388;2023-03-23T06:49:33;93814.66;;;9.15;100.00
10261;BME280;5175;42.606;23.388;2023-03-23T06:52:00;93817.03;;;9.32;100.00
10261;BME280;5175;42.606;23.388;2023-03-23T06:54:28;93836.47;;;9.17;100.00
10261;BME280;5175;42.606;23.388;2023-03-23T06:56:55;93828.75;;;9.26;100.00
10261;BME280;5175;42.606;23.388;2023-03-23T06:59:22;93833.75;;;9.48;100.00
10261;BME280;5175;42.606;23.388;2023-03-23T07:01:50;93826.34;;;9.34;100.00
10261;BME280;5175;42.606;23.388;2023-03-23T07:04:17;93829.25;;;9.43;100.00
10261;BME280;5175;42.606;23.388;2023-03-23T07:06:44;93830.00;;;9.64;100.00
10261;BME280;5175;42.606;23.388;2023-03-23T07:09:11;93838.56;;;9.45;100.00
10261;BME280;5175;42.606;23.388;2023-03-23T07:11:38;93848.88;;;9.72;100.00
10261;BME280;5175;42.606;23.388;2023-03-23T07:14:04;93842.72;;;9.77;100.00
10261;BME280;5175;42.606;23.388;2023-03-23T07:16:32;93832.88;;;9.77;100.00
10261;BME280;5175;42.606;23.388;2023-03-23T07:19:00;93835.53;;;9.82;100.00
10261;BME280;5175;42.606;23.388;2023-03-23T07:21:27;93834.41;;;9.98;100.00
10261;BME280;5175;42.606;23.388;2023-03-23T07:23:53;93834.66;;;9.97;100.00
10261;BME280;5175;42.606;23.388;2023-03-23T07:26:20;93834.34;;;10.19;100.00
10261;BME280;5175;42.606;23.388;2023-03-23T07:28:48;93836.88;;;10.44;100.00
10261;BME280;5175;42.606;23.388;2023-03-23T07:31:15;93845.13;;;10.47;100.00
10261;BME280;5175;42.606;23.388;2023-03-23T07:33:43;93835.16;;;10.58;100.00
10261;BME280;5175;42.606;23.388;2023-03-23T07:36:12;93839.97;;;10.56;100.00
10261;BME280;5175;42.606;23.388;2023-03-23T07:38:38;93851.03;;;10.83;100.00
10261;BME280;5175;42.606;23.388;2023-03-23T07:41:06;93842.13;;;10.93;100.00
10261;BME280;5175;42.606;23.388;2023-03-23T07:43:32;93830.69;;;10.87;100.00
10261;BME280;5175;42.606;23.388;2023-03-23T07:45:59;93847.34;;;11.08;100.00
10261;BME280;5175;42.606;23.388;2023-03-23T07:48:26;93857.88;;;11.28;100.00
10261;BME280;5175;42.606;23.388;2023-03-23T07:50:53;93865.63;;;11.29;100.00
10261;BME280;5175;42.606;23.388;2023-03-23T07:53:21;93870.31;;;11.38;100.00
10261;BME280;5175;42.606;23.388;2023-03-23T07:55:49;93861.00;;;11.64;100.00
10261;BME280;5175;42.606;23.388;2023-03-23T07:58:16;93860.19;;;11.92;100.00
10261;BME280;5175;42.606;23.388;2023-03-23T08:00:45;93874.13;;;11.89;100.00
10261;BME280;5175;42.606;23.388;2023-03-23T08:03:13;93875.13;;;11.98;100.00
10261;BME280;5175;42.606;23.388;2023-03-23T08:05:40;93877.50;;;12.00;100.00
10261;BME280;5175;42.606;23.388;2023-03-23T08:08:08;93882.53;;;12.30;100.00
10261;BME280;5175;42.606;23.388;2023-03-23T08:10:36;93886.38;;;12.42;100.00
10261;BME280;5175;42.606;23.388;2023-03-23T08:13:03;93885.97;;;12.73;100.00
10261;BME280;5175;42.606;23.388;2023-03-23T08:15:31;93895.25;;;12.99;100.00
10261;BME280;5175;42.606;23.388;2023-03-23T08:18:03;93891.84;;;12.93;100.00
10261;BME280;5175;42.606;23.388;2023-03-23T08:20:30;93894.06;;;13.05;90.22
10261;BME280;5175;42.606;23.388;2023-03-23T08:22:58;93889.97;;;12.94;89.33
10261;BME280;5175;42.606;23.388;2023-03-23T08:25:25;93897.38;;;12.97;87.28
10261;BME280;5175;42.606;23.388;2023-03-23T08:27:54;93895.88;;;13.28;85.28
10261;BME280;5175;42.606;23.388;2023-03-23T08:30:21;93898.41;;;13.38;83.63
10261;BME280;5175;42.606;23.388;2023-03-23T08:32:49;93901.38;;;13.37;80.25
10261;BME280;5175;42.606;23.388;2023-03-23T08:35:17;93901.84;;;13.57;82.65
10261;BME280;5175;42.606;23.388;2023-03-23T08:37:45;93906.28;;;13.80;79.79
10261;BME280;5175;42.606;23.388;2023-03-23T08:40:17;93898.72;;;13.82;75.89
10261;BME280;5175;42.606;23.388;2023-03-23T08:42:45;93901.63;;;14.00;72.08
10261;BME280;5175;42.606;23.388;2023-03-23T08:45:17;93903.72;;;14.03;72.19
10261;BME280;5175;42.606;23.388;2023-03-23T08:47:44;93893.91;;;14.12;69.89
10261;BME280;5175;42.606;23.388;2023-03-23T08:50:14;93901.00;;;14.49;70.29
10261;BME280;5175;42.606;23.388;2023-03-23T08:52:41;93903.19;;;14.33;66.88
10261;BME280;5175;42.606;23.388;2023-03-23T08:55:09;93906.91;;;14.05;63.37
10261;BME280;5175;42.606;23.388;2023-03-23T08:57:36;93900.34;;;13.84;63.37
10261;BME280;5175;42.606;23.388;2023-03-23T09:00:05;93912.34;;;14.32;60.67
10261;BME280;5175;42.606;23.388;2023-03-23T09:02:41;93905.72;;;14.11;65.40
10261;BME280;5175;42.606;23.388;2023-03-23T09:05:08;93903.31;;;13.96;64.24
10261;BME280;5175;42.606;23.388;2023-03-23T09:07:37;93898.16;;;14.13;65.87
10261;BME280;5175;42.606;23.388;2023-03-23T09:10:04;93895.91;;;14.20;65.85
10261;BME280;5175;42.606;23.388;2023-03-23T09:12:31;93912.19;;;14.23;61.92
10261;BME280;5175;42.606;23.388;2023-03-23T09:14:58;93911.59;;;13.99;61.24
10261;BME280;5175;42.606;23.388;2023-03-23T09:17:26;93908.34;;;14.57;62.42
10261;BME280;5175;42.606;23.388;2023-03-23T09:19:55;93907.97;;;14.36;62.39
10261;BME280;5175;42.606;23.388;2023-03-23T09:22:22;93919.69;;;14.40;57.55
10261;BME280;5175;42.606;23.388;2023-03-23T09:24:49;93907.56;;;14.43;60.23
10261;BME280;5175;42.606;23.388;2023-03-23T09:27:16;93903.78;;;14.43;60.08
10261;BME280;5175;42.606;23.388;2023-03-23T09:29:44;93902.09;;;14.34;60.41
10261;BME280;5175;42.606;23.388;2023-03-23T09:32:14;93901.44;;;14.10;60.85
10261;BME280;5175;42.606;23.388;2023-03-23T09:34:41;93905.50;;;14.07;59.53
10261;BME280;5175;42.606;23.388;2023-03-23T09:37:09;93895.94;;;14.33;60.24
10261;BME280;5175;42.606;23.388;2023-03-23T09:39:38;93896.59;;;14.25;59.06
10261;BME280;5175;42.606;23.388;2023-03-23T09:42:18;93891.53;;;14.65;58.71
10261;BME280;5175;42.606;23.388;2023-03-23T09:44:57;93886.31;;;14.95;57.54
10261;BME280;5175;42.606;23.388;2023-03-23T09:47:32;93892.44;;;15.10;59.21
10261;BME280;5175;42.606;23.388;2023-03-23T09:50:07;93899.50;;;15.05;58.34
10261;BME280;5175;42.606;23.388;2023-03-23T09:52:40;93892.84;;;15.03;57.06
10261;BME280;5175;42.606;23.388;2023-03-23T09:55:12;93888.28;;;15.26;58.80
10261;BME280;5175;42.606;23.388;2023-03-23T09:57:45;93891.53;;;15.50;57.48
10261;BME280;5175;42.606;23.388;2023-03-23T10:02:49;93891.38;;;15.33;56.55
10261;BME280;5175;42.606;23.388;2023-03-23T10:05:27;93891.75;;;15.62;58.05
10261;BME280;5175;42.606;23.388;2023-03-23T10:07:58;93887.13;;;15.54;55.73
10261;BME280;5175;42.606;23.388;2023-03-23T10:10:35;93885.25;;;15.41;54.40
10261;BME280;5175;42.606;23.388;2023-03-23T10:13:09;93892.34;;;15.37;55.73
10261;BME280;5175;42.606;23.388;2023-03-23T10:15:39;93879.34;;;15.75;54.83
10261;BME280;5175;42.606;23.388;2023-03-23T10:18:12;93879.59;;;15.64;58.89
10261;BME280;5175;42.606;23.388;2023-03-23T10:20:47;93884.03;;;15.91;54.06
10261;BME280;5175;42.606;23.388;2023-03-23T10:23:38;93879.78;;;15.68;51.54
10261;BME280;5175;42.606;23.388;2023-03-23T10:26:10;93867.97;;;15.78;50.63
10261;BME280;5175;42.606;23.388;2023-03-23T10:28:42;93867.63;;;15.71;53.38
10261;BME280;5175;42.606;23.388;2023-03-23T10:31:12;93860.63;;;16.00;54.74
10261;BME280;5175;42.606;23.388;2023-03-23T10:33:41;93866.97;;;15.96;53.15
10261;BME280;5175;42.606;23.388;2023-03-23T10:36:11;93868.41;;;16.02;52.67
10261;BME280;5175;42.606;23.388;2023-03-23T10:38:45;93864.44;;;15.99;54.03
10261;BME280;5175;42.606;23.388;2023-03-23T10:41:14;93854.72;;;15.59;52.70
10261;BME280;5175;42.606;23.388;2023-03-23T10:43:42;93860.28;;;15.93;51.50
10261;BME280;5175;42.606;23.388;2023-03-23T10:46:21;93851.41;;;15.84;53.84
10261;BME280;5175;42.606;23.388;2023-03-23T10:48:50;93853.41;;;16.09;53.31
10261;BME280;5175;42.606;23.388;2023-03-23T10:51:22;93853.13;;;16.19;53.17
10261;BME280;5175;42.606;23.388;2023-03-23T10:53:56;93857.72;;;16.19;54.63
10261;BME280;5175;42.606;23.388;2023-03-23T10:56:25;93854.84;;;16.15;54.03
10261;BME280;5175;42.606;23.388;2023-03-23T10:58:53;93854.03;;;16.06;55.44
10261;BME280;5175;42.606;23.388;2023-03-23T11:01:29;93853.03;;;16.02;54.54
10261;BME280;5175;42.606;23.388;2023-03-23T11:03:57;93854.94;;;16.41;54.05
10261;BME280;5175;42.606;23.388;2023-03-23T11:06:29;93846.38;;;16.31;51.52
10261;BME280;5175;42.606;23.388;2023-03-23T11:09:01;93845.06;;;16.28;52.53
10261;BME280;5175;42.606;23.388;2023-03-23T11:11:31;93844.81;;;16.47;53.54
10261;BME280;5175;42.606;23.388;2023-03-23T11:14:00;93846.63;;;16.60;55.26
10261;BME280;5175;42.606;23.388;2023-03-23T11:16:28;93840.28;;;16.56;55.85
10261;BME280;5175;42.606;23.388;2023-03-23T11:18:57;93835.56;;;16.61;55.06
10261;BME280;5175;42.606;23.388;2023-03-23T11:21:25;93801.56;;;15.95;54.36
10261;BME280;5175;42.606;23.388;2023-03-23T11:23:54;93842.53;;;16.79;52.64
10261;BME280;5175;42.606;23.388;2023-03-23T11:26:26;93837.78;;;16.28;49.78
10261;BME280;5175;42.606;23.388;2023-03-23T11:28:56;93823.69;;;15.84;51.71
10261;BME280;5175;42.606;23.388;2023-03-23T11:31:28;93829.00;;;16.06;51.21
10261;BME280;5175;42.606;23.388;2023-03-23T11:33:58;93823.09;;;16.35;52.80
10261;BME280;5175;42.606;23.388;2023-03-23T11:36:32;93820.25;;;16.40;52.20
10261;BME280;5175;42.606;23.388;2023-03-23T11:39:00;93813.19;;;16.69;52.67
10261;BME280;5175;42.606;23.388;2023-03-23T11:41:34;93745.84;;;16.52;54.75
10261;BME280;5175;42.606;23.388;2023-03-23T11:44:10;93788.03;;;16.91;55.48
10261;BME280;5175;42.606;23.388;2023-03-23T11:46:44;93807.22;;;17.07;53.17
10261;BME280;5175;42.606;23.388;2023-03-23T11:49:20;93803.25;;;16.96;52.89
10261;BME280;5175;42.606;23.388;2023-03-23T11:51:51;93796.16;;;16.35;54.32
10261;BME280;5175;42.606;23.388;2023-03-23T11:54:30;93806.59;;;16.27;51.85
10261;BME280;5175;42.606;23.388;2023-03-23T11:57:00;93798.81;;;16.26;52.41
10261;BME280;5175;42.606;23.388;2023-03-23T11:59:28;93804.00;;;16.62;52.69
10261;BME280;5175;42.606;23.388;2023-03-23T12:02:03;93798.97;;;16.69;52.75
10261;BME280;5175;42.606;23.388;2023-03-23T12:04:54;93793.41;;;16.91;51.80
10261;BME280;5175;42.606;23.388;2023-03-23T12:07:39;93797.69;;;17.18;50.64
10261;BME280;5175;42.606;23.388;2023-03-23T12:10:18;93797.50;;;17.48;50.46
10261;BME280;5175;42.606;23.388;2023-03-23T12:12:57;93793.88;;;17.19;51.48
10261;BME280;5175;42.606;23.388;2023-03-23T12:15:30;93794.19;;;17.09;49.25
10261;BME280;5175;42.606;23.388;2023-03-23T12:18:05;93782.16;;;17.06;49.96
10261;BME280;5175;42.606;23.388;2023-03-23T12:20:43;93788.47;;;17.19;53.45
10261;BME280;5175;42.606;23.388;2023-03-23T12:23:22;93793.66;;;17.49;50.82
10261;BME280;5175;42.606;23.388;2023-03-23T12:26:17;93802.72;;;17.45;49.80
10261;BME280;5175;42.606;23.388;2023-03-23T12:29:02;93790.66;;;17.51;51.23
10261;BME280;5175;42.606;23.388;2023-03-23T12:31:38;93780.66;;;17.69;51.40
10261;BME280;5175;42.606;23.388;2023-03-23T12:34:17;93785.53;;;17.75;50.50
10261;BME280;5175;42.606;23.388;2023-03-23T12:36:56;93797.22;;;17.96;50.88
10261;BME280;5175;42.606;23.388;2023-03-23T12:39:50;93795.59;;;17.58;46.83
10261;BME280;5175;42.606;23.388;2023-03-23T12:42:28;93790.34;;;17.61;47.76
10261;BME280;5175;42.606;23.388;2023-03-23T12:45:05;93782.75;;;18.01;48.73
10261;BME280;5175;42.606;23.388;2023-03-23T12:47:37;93788.31;;;18.34;48.00
10261;BME280;5175;42.606;23.388;2023-03-23T12:50:13;93782.28;;;17.99;47.85
10261;BME280;5175;42.606;23.388;2023-03-23T12:52:47;93780.44;;;17.82;45.54
10261;BME280;5175;42.606;23.388;2023-03-23T12:55:19;93776.44;;;17.88;48.70
10261;BME280;5175;42.606;23.388;2023-03-23T12:57:53;93785.19;;;17.85;45.93
10261;BME280;5175;42.606;23.388;2023-03-23T13:00:29;93764.72;;;18.22;50.88
10261;BME280;5175;42.606;23.388;2023-03-23T13:03:01;93772.66;;;18.77;49.82
10261;BME280;5175;42.606;23.388;2023-03-23T13:05:36;93768.56;;;19.12;47.32
10261;BME280;5175;42.606;23.388;2023-03-23T13:08:12;93764.41;;;18.94;45.90
10261;BME280;5175;42.606;23.388;2023-03-23T13:10:45;93771.31;;;18.83;45.61
10261;BME280;5175;42.606;23.388;2023-03-23T13:13:18;93767.63;;;18.88;46.82
10261;BME280;5175;42.606;23.388;2023-03-23T13:16:02;93759.06;;;19.06;48.19
10261;BME280;5175;42.606;23.388;2023-03-23T13:18:38;93761.91;;;19.10;46.83
10261;BME280;5175;42.606;23.388;2023-03-23T13:21:14;93761.59;;;19.23;44.80
10261;BME280;5175;42.606;23.388;2023-03-23T13:23:46;93763.03;;;19.42;46.63